Terminal Aerodrome Forecast
Issued by NWS Lake Charles, LA

Home | Current Version | Previous Version | Text Only | Print | Product List | Glossary On
Versions: 1 2 3 4 5 6 7 8 9 10 11 12 13 14 15 16 17 18 19 20 21 22
516
FTUS44 KLCH 071404 AAA
TAFAEX
TAF AMD
KAEX 071404Z 0714/0812 06004KT P6SM OVC007
      TEMPO 0714/0718 OVC004
     FM071800 08006KT P6SM OVC015
     FM080200 02008KT P6SM OVC009 PROB30 0805/0809 P6SM -DZ OVC011=

USA.gov is the U.S. government's official web portal to all federal, state and local government web resources and services.